Tiempo atmosférico en la estación meteorológica de Fuente De Cantos, Badajoz (602 m.)



Fecha
DESCASC
Temp. máxima en grados centígrados (hora)
DESCASC
Temp. mínima en grados centígrados (hora)
DESCASC
Temp. media en grados centígrados
DESCASC
Racha de viento máxima en m/sg (hora)
DESCASC
Velocidad máxima media en intervalos de 10 minutos(hora)
DESCASC
Precipitaciones diarias en mm
DESCASC
Precipitaciones de 00:00 a 06:00 en mm
DESCASC
Precipitaciones de 06:00 a 12:00 en mm
DESCASC
Precipitaciones de 12:00 a 18:00 en mm
DESCASC
Precipitaciones de 18:00 a 24:00 en mm
DESCASC
20-09-2018 30.3 (17:00) 19.3 (08:20) 24.8 10.83 (19:40) 7.5 (19:40) 0 0 0 0 0
19-09-2018 32 (17:10) 19 (08:10) 25.5 7.22 (14:10) 3.89 (13:30) 0 0 0 0 0
18-09-2018 31.2 (16:00) 16.6 (07:30) 23.9 10.28 (18:00) 7.78 (18:00) 0 0 0 0 0
17-09-2018 29.7 (16:50) 19.2 (06:40) 24.5 12.22 (18:10) 8.89 (18:20) 0 0 0 0 0
16-09-2018 30.3 (17:20) 17.2 (00:00) 23.8 9.17 (16:30) 6.11 (01:40) 0 0 0 0 0
15-09-2018 29.9 (17:50) 16.2 (00:00) 23.1 9.72 (21:10) 5.56 (21:20) 0.6 0 0 0 0.6
14-09-2018 32.1 (15:50) 16.7 (00:00) 24.4 13.33 (17:30) 9.17 (20:10) 4.4 0 0 0 4.4
13-09-2018 32.2 (14:50) 19.5 (00:00) 25.9 17.5 (18:10) 10.28 (18:10) 1.4 0 0 0 1.4
12-09-2018 32.4 (17:20) 19 (00:00) 25.7 7.22 (21:10) 5.83 (00:40) 0 0 0 0 0
11-09-2018 31 (17:20) 16.6 (00:00) 23.8 10.28 (15:30) 6.11 (18:30) 0 0 0 0 0
10-09-2018 29.7 (16:50) 16.6 (00:00) 23.2 12.5 (13:20) 8.33 (16:50) 0 0 0 0 0
09-09-2018 27.1 (17:00) 17 (00:00) 22.1 9.17 (17:10) 6.11 (15:10) 0 0 0 0 0
08-09-2018 26.3 (16:20) 17.7 (00:00) 22 11.39 (15:00) 7.78 (15:00) 0 0 0 0 0
07-09-2018 27.6 (15:40) 14.7 (00:00) 21.2 11.67 (14:40) 8.33 (17:50) 0 0 0 0 0
06-09-2018 28.1 (16:20) 13.5 (00:00) 20.8 9.72 (16:10) 5 (20:10) 0 0 0 0 0
05-09-2018 24.6 (16:20) 16.6 (00:00) 20.6 9.44 (16:10) 6.94 (17:50) 0 0 0 0 0
04-09-2018 26.7 (17:40) 16 (00:00) 21.4 8.61 (17:50) 5 (20:50) 0 0 0 0 0
03-09-2018 28.5 (17:40) 17.8 (00:00) 23.1 9.72 (16:10) 6.67 (02:40) 0 0 0 0 0
02-09-2018 35.6 (16:50) 20.8 (00:00) 28.2 11.67 (16:20) 8.61 (17:50) 0 0 0 0 0
01-09-2018 35.3 (16:20) 21.5 (00:00) 28.4 12.5 (13:50) 9.17 (14:20) 0 0 0 0 0
31-08-2018 36.1 (16:40) 21.1 (00:00) 28.6 11.39 (16:30) 5.28 (05:40) 0 0 0 0 0
30-08-2018 34.3 (17:20) 19 (00:00) 26.6 9.72 (17:00) 5.56 (20:30) 0 0 0 0 0
29-08-2018 31.3 (17:10) 14.4 (00:00) 22.8 8.61 (20:20) 6.67 (20:20) 0 0 0 0 0
28-08-2018 32.6 (17:00) 18.4 (00:00) 25.5 18.89 (02:00) 13.89 (01:30) 0 0 0 0 0
27-08-2018 37.4 (17:20) 23 (00:00) 30.2 19.17 (13:20) 10.83 (13:30) 0 0 0 0 0
26-08-2018 36 (17:00) 22.2 (00:00) 29.1 10.28 (14:00) 6.11 (18:30) 0 0 0 0 0
25-08-2018 35.7 (17:10) 22.3 (00:00) 29 9.72 (19:20) 6.39 (17:40) 0 0 0 0 0
24-08-2018 35.1 (15:40) 21.9 (00:00) 28.5 14.72 (18:40) 6.11 (16:40) 0 0 0 0 0
23-08-2018 34.8 (17:20) 20.2 (00:00) 27.5 20.83 (19:20) 9.17 (19:20) 3.8 0 0 0 3.8

Gráficas

Temp. máximas Temp. mínimas Temp. medias Precipitaciones Rachas de viento máximas Velocidades máximas media en intervalos de 10 minutos

Datos horarios

Fecha y hora oficial Temperatura (ºC) Velocidad del viento (km/h) Dirección del viento Racha (km/h) Dirección de racha Precipitación (mm) Presión (hPa) Tendencia (hPa) Humedad (%)
2018-09-21 23:00:00 24.7 9 Este 14 Este 0 -- -- 38
2018-09-21 22:00:00 26.1 9 Sudeste 12 Sudeste 0 -- -- 35
2018-09-21 21:00:00 28.1 4 Sur 23 Noroeste 0 -- -- 34
2018-09-21 20:00:00 29.5 10 Norte 17 Este 0 -- -- 37
2018-09-21 19:00:00 31.2 10 Norte 23 Norte 0 -- -- 34
2018-09-21 18:00:00 31.4 13 Norte 28 Norte 0 -- -- 33
2018-09-21 17:00:00 31.4 8 Nordeste 27 Nordeste 0 -- -- 33
2018-09-21 16:00:00 30.7 9 Norte 31 Nordeste 0 -- -- 34
2018-09-21 15:00:00 29.6 15 Nordeste 33 Sur 0 -- -- 35
2018-09-21 14:00:00 30.4 8 Nordeste 17 Este 0 -- -- 33
2018-09-21 13:00:00 29.5 5 Norte 17 Norte 0 -- -- 33
2018-09-21 12:00:00 27.6 8 Norte 15 Norte 0 -- -- 36
2018-09-21 11:00:00 25.5 3 Noroeste 5 Noroeste 0 -- -- 36
2018-09-21 10:00:00 22.2 2 Sudoeste 8 Sudeste 0 -- -- 42
2018-09-21 09:00:00 18.8 5 Sudeste 9 Sudeste 0 -- -- 56
2018-09-21 08:00:00 19 4 Oeste 6 Oeste 0 -- -- 57
2018-09-21 07:00:00 20 5 Sudoeste 8 Sudoeste 0 -- -- 53
2018-09-21 06:00:00 20.5 6 Sudoeste 8 Sudoeste 0 -- -- 51
2018-09-21 05:00:00 20.2 6 Sudoeste 8 Sudoeste 0 -- -- 57
2018-09-21 04:00:00 21 5 Sudoeste 9 Sudoeste 0 -- -- 55
2018-09-21 03:00:00 21.5 6 Sudoeste 9 Sudoeste 0 -- -- 57
2018-09-21 02:00:00 22 3 Sudoeste 7 Sudeste 0 -- -- 56
2018-09-21 01:00:00 22.2 5 Sur 16 Sudeste 0 -- -- 56
2018-09-21 00:00:00 22.7 6 Noroeste 31 Noroeste 0 -- -- 57
2018-09-20 23:00:00 23 5 Sur 8 Sudeste 0 -- -- 56
2018-09-20 22:00:00 23.5 8 Sudeste 10 Sudeste 0 -- -- 55
2018-09-20 21:00:00 24.3 9 Noroeste 23 Norte 0 -- -- 52
2018-09-20 20:00:00 25.5 21 Norte 39 Norte 0 -- -- 46
2018-09-20 19:00:00 25.6 9 Sudoeste 33 Sudoeste 0 -- -- 52
2018-09-20 18:00:00 28 19 Sur 28 Sudoeste 0 -- -- 43
2018-09-20 17:00:00 30.3 8 Sudeste 17 Sudeste 0 -- -- 38
2018-09-20 16:00:00 29.3 8 Sudoeste 18 Oeste 0 -- -- 41
2018-09-20 15:00:00 29.1 9 Sudoeste 18 Norte 0 -- -- 41
2018-09-20 14:00:00 28.7 6 Nordeste 14 Nordeste 0 -- -- 41
2018-09-20 13:00:00 28.7 7 Noroeste 19 Oeste 0 -- -- 41
2018-09-20 12:00:00 27.4 9 Noroeste 14 Noroeste 0 -- -- 45
2018-09-20 11:00:00 25.1 5 Sudoeste 12 Este 0 -- -- 49
2018-09-20 10:00:00 22.4 7 Este 15 Este 0 -- -- 61
2018-09-20 09:00:00 19.7 14 Este 20 Este 0 -- -- 72
2018-09-20 08:00:00 19.8 13 Este 19 Este 0 -- -- 69
2018-09-20 07:00:00 20.7 7 Sudeste 14 Sudeste 0 -- -- 61
2018-09-20 06:00:00 21.5 4 Sudoeste 6 Sur 0 -- -- 62
2018-09-20 05:00:00 21.3 4 Sur 6 Sur 0 -- -- 63
2018-09-20 04:00:00 21.3 5 Sudoeste 8 Sudoeste 0 -- -- 63
2018-09-20 03:00:00 21.3 6 Sudoeste 10 Sudoeste 0 -- -- 62
2018-09-20 02:00:00 22.1 6 Sudoeste 9 Sudoeste 0 -- -- 62
2018-09-20 01:00:00 23.8 7 Sudeste 9 Sudeste 0 -- -- 56
2018-09-20 00:00:00 24.7 6 Sur 10 Sudeste 0 -- -- 53
2018-09-19 23:00:00 25.9 9 Sudeste 14 Sudeste 0 -- -- 49
2018-09-19 22:00:00 26.6 5 Este 12 Este 0 -- -- 45
2018-09-19 21:00:00 27.5 3 Sudeste 13 Sudeste 0 -- -- 43
2018-09-19 20:00:00 29.3 4 Nordeste 12 Nordeste 0 -- -- 36
2018-09-19 19:00:00 29.9 8 Nordeste 14 Nordeste 0 -- -- 33
2018-09-19 18:00:00 31.4 3 Nordeste 20 Norte 0 -- -- 32
2018-09-19 17:00:00 31.7 10 Nordeste 22 Norte 0 -- -- 32
2018-09-19 16:00:00 31.4 14 Norte 25 Este 0 -- -- 33
2018-09-19 15:00:00 29.9 6 Norte 26 Nordeste 0 -- -- 35
2018-09-19 14:00:00 30.1 9 Nordeste 24 Nordeste 0 -- -- 35
2018-09-19 13:00:00 29.8 8 Este 21 Nordeste 0 -- -- 36
2018-09-19 12:00:00 28.2 9 Norte 17 Nordeste 0 -- -- 37
2018-09-19 11:00:00 26.8 7 Nordeste 12 Este 0 -- -- 38
2018-09-19 10:00:00 23.5 5 Sudeste 8 Sudeste 0 -- -- 50
2018-09-19 09:00:00 20.3 3 Sudeste 6 Sudeste 0 -- -- 59
2018-09-19 08:00:00 19.3 4 Sudeste 6 Sudeste 0 -- -- 62
2018-09-19 07:00:00 19.8 0 Calma 3 Sur 0 -- -- 60
2018-09-19 06:00:00 19.8 0 Calma 5 Sudeste 0 -- -- 59
2018-09-19 05:00:00 20 3 Sudoeste 6 Sudoeste 0 -- -- 59
2018-09-19 04:00:00 20.5 5 Sudoeste 6 Sudoeste 0 -- -- 58
2018-09-19 03:00:00 20.3 4 Oeste 15 Noroeste 0 -- -- 59
2018-09-19 02:00:00 20.6 6 Noroeste 16 Norte 0 -- -- 56
2018-09-19 01:00:00 21.3 10 Norte 16 Norte 0 -- -- 55
2018-09-19 00:00:00 22.3 12 Norte 17 Norte 0 -- -- 55
2018-09-18 23:00:00 22.5 6 Este 17 Este 0 -- -- 60
2018-09-18 22:00:00 24.2 7 Este 14 Sudeste 0 -- -- 54
2018-09-18 21:00:00 24.6 10 Este 19 Este 0 -- -- 55
2018-09-18 20:00:00 25.8 13 Este 28 Este 0 -- -- 51
2018-09-18 19:00:00 29.3 17 Noroeste 31 Noroeste 0 -- -- 40
2018-09-18 18:00:00 30 28 Oeste 37 Oeste 0 -- -- 40
2018-09-18 17:00:00 30.1 8 Sur 26 Oeste 0 -- -- 39
2018-09-18 16:00:00 31.2 13 Sudoeste 22 Oeste 0 -- -- 33
2018-09-18 15:00:00 30.1 12 Oeste 24 Oeste 0 -- -- 36
2018-09-18 14:00:00 29.1 7 Sudoeste 16 Sur 0 -- -- 39
2018-09-18 13:00:00 27.9 5 Sur 12 Sur 0 -- -- 45
2018-09-18 12:00:00 25.8 7 Oeste 12 Sudoeste 0 -- -- 51
2018-09-18 11:00:00 23.5 2 Sudoeste 5 Norte 0 -- -- 60
2018-09-18 10:00:00 20.7 3 Norte 8 Noroeste 0 -- -- 69
2018-09-18 09:00:00 18.8 5 Norte 7 Norte 0 -- -- 78
2018-09-18 08:00:00 17.6 3 Nordeste 14 Nordeste 0 -- -- 82
2018-09-18 07:00:00 18.8 6 Sur 9 Sudeste 0 -- -- 77
2018-09-18 06:00:00 18.9 4 Sudeste 7 Sudeste 0 -- -- 76
2018-09-18 05:00:00 18.9 4 Sudoeste 8 Sur 0 -- -- 76
2018-09-18 04:00:00 19.2 5 Sur 7 Sur 0 -- -- 76
2018-09-18 03:00:00 19.9 4 Sudoeste 8 Sudoeste 0 -- -- 73
2018-09-18 02:00:00 20.1 6 Sudoeste 8 Sudoeste 0 -- -- 73
2018-09-18 01:00:00 20.4 4 Sudoeste 14 Sudeste 0 -- -- 69
2018-09-18 00:00:00 20.6 6 Sur 10 Sudeste 0 -- -- 70
2018-09-17 23:00:00 21.4 6 Sudoeste 14 Oeste 0 -- -- 66
2018-09-17 22:00:00 22 6 Sudoeste 21 Sur 0 -- -- 61
2018-09-17 21:00:00 21.9 8 Sur 17 Sudeste 0 -- -- 73
2018-09-17 20:00:00 23.3 12 Sudeste 21 Nordeste 0 -- -- 69
2018-09-17 19:00:00 25.3 18 Nordeste 44 Norte 0 -- -- 52
2018-09-17 18:00:00 25.8 24 Noroeste 40 Noroeste 0 -- -- 52
2018-09-17 17:00:00 29.4 14 Noroeste 25 Oeste 0 -- -- 45
2018-09-17 16:00:00 26.3 20 Oeste 31 Oeste 0 -- -- 50
2018-09-17 15:00:00 28 13 Sudeste 32 Sur 0 -- -- 49
2018-09-17 14:00:00 28.8 17 Sudeste 31 Sudeste 0 -- -- 47
2018-09-17 13:00:00 28.2 18 Sudeste 33 Sudeste 0 -- -- 48
2018-09-17 12:00:00 26.7 20 Sudeste 30 Sudeste 0 -- -- 52
2018-09-17 11:00:00 24.6 13 Este 21 Sudeste 0 -- -- 63
2018-09-17 10:00:00 21.9 13 Este 21 Este 0 -- -- 74
2018-09-17 09:00:00 20.1 15 Este 22 Este 0 -- -- 76
2018-09-17 08:00:00 19.7 15 Sudeste 21 Sudeste 0 -- -- 76
2018-09-17 07:00:00 19.5 18 Sudeste 28 Este 0 -- -- 75
2018-09-17 06:00:00 20.3 16 Este 21 Este 0 -- -- 72
2018-09-17 05:00:00 21.4 9 Sudeste 16 Sudeste 0 -- -- 63
2018-09-17 04:00:00 21.6 2 Sudeste 12 Este 0 -- -- 64
2018-09-17 03:00:00 21.4 3 Este 7 Este 0 -- -- 63
2018-09-17 02:00:00 21.9 4 Este 9 Sudeste 0 -- -- 62
2018-09-17 01:00:00 22.5 9 Sudeste 19 Sudeste 0 -- -- 60
2018-09-17 00:00:00 22.4 11 Sudeste 14 Sudeste 0 -- -- 60
2018-09-16 23:00:00 23 9 Sudeste 14 Sudeste 0 -- -- 59
2018-09-16 22:00:00 24.1 9 Sudeste 12 Sudeste 0 -- -- 56
2018-09-16 21:00:00 25.9 4 Sudeste 10 Sur 0 -- -- 50
2018-09-16 20:00:00 27.4 8 Sur 21 Sudeste 0 -- -- 46
2018-09-16 19:00:00 29.4 12 Sudeste 21 Sur 0 -- -- 41
2018-09-16 18:00:00 28.9 13 Sudeste 25 Sudeste 0 -- -- 40
2018-09-16 17:00:00 30.2 12 Este 33 Este 0 -- -- 37
2018-09-16 16:00:00 29.2 14 Sudeste 26 Este 0 -- -- 41
2018-09-16 15:00:00 28.8 13 Este 23 Sudeste 0 -- -- 43
2018-09-16 14:00:00 26.9 11 Sur 25 Sudeste 0 -- -- 52
2018-09-16 13:00:00 26.6 15 Sudeste 24 Sudeste 0 -- -- 55
2018-09-16 12:00:00 24.8 14 Sudeste 26 Este 0 -- -- 59
2018-09-16 11:00:00 21.9 15 Este 22 Este 0 -- -- 77
2018-09-16 10:00:00 18.8 13 Este 22 Este 0 -- -- 88
2018-09-16 09:00:00 17.6 19 Este 23 Este 0 -- -- 90
2018-09-16 08:00:00 17.6 17 Este 25 Sudeste 0 -- -- 84
2018-09-16 07:00:00 17.2 19 Este 25 Sudeste 0 -- -- 84
2018-09-16 06:00:00 18.3 17 Este 23 Sudeste 0 -- -- 75
2018-09-16 05:00:00 17.9 21 Sudeste 25 Este 0 -- -- 76
2018-09-16 04:00:00 18.9 14 Sudeste 15 Este 0 -- -- 69
2018-09-16 03:00:00 18.7 10 Sudeste 20 Este 0 -- -- 73
2018-09-16 02:00:00 18.6 18 Este 27 Este 0 -- -- 75
2018-09-16 01:00:00 19.9 12 Este 17 Este 0 -- -- 71
2018-09-16 00:00:00 20.7 10 Sudeste 14 Sudeste 0 -- -- 69
2018-09-15 23:00:00 21.2 10 Sudeste 22 Este 0 -- -- 70
2018-09-15 22:00:00 21.7 14 Este 35 Sudeste 0 -- -- 71
2018-09-15 21:00:00 24.5 9 Norte 12 Noroeste 0 -- -- 59
2018-09-15 20:00:00 25.9 5 Sur 25 Sudoeste 0.6 -- -- 52
2018-09-15 19:00:00 28 12 Norte 24 Norte 0 -- -- 47
2018-09-15 18:00:00 29.1 17 Norte 29 Norte 0 -- -- 43
2018-09-15 17:00:00 28.8 10 Nordeste 27 Nordeste 0 -- -- 40
2018-09-15 16:00:00 28.6 13 Nordeste 27 Nordeste 0 -- -- 44
2018-09-15 15:00:00 27.6 12 Norte 30 Nordeste 0 -- -- 47
2018-09-15 14:00:00 26.5 13 Norte 23 Norte 0 -- -- 49
2018-09-15 13:00:00 25 12 Norte 17 Nordeste 0 -- -- 53
2018-09-15 12:00:00 23 10 Noroeste 17 Noroeste 0 -- -- 67
2018-09-15 11:00:00 22.1 11 Norte 17 Norte 0 -- -- 67
2018-09-15 10:00:00 20 0 Calma 8 Sudeste 0 -- -- 79
2018-09-15 09:00:00 18.4 6 Sudeste 10 Este 0 -- -- 76
2018-09-15 08:00:00 16.3 10 Este 13 Sudeste 0 -- -- 86
2018-09-15 07:00:00 17.7 13 Sudeste 15 Sudeste 0 -- -- 78
2018-09-15 06:00:00 17.6 10 Sudeste 12 Sudeste 0 -- -- 83
2018-09-15 05:00:00 17.9 8 Sudeste 9 Sudeste 0 -- -- 83
2018-09-15 04:00:00 17.5 4 Sudeste 9 Sudeste 0 -- -- 82
2018-09-15 03:00:00 16.8 5 Sur 10 Sur 0 -- -- 92
2018-09-15 02:00:00 16.4 2 Sudoeste 22 Sudoeste 0 -- -- 95
2018-09-15 01:00:00 16.5 14 Sudoeste 20 Oeste 0 -- -- 95
2018-09-15 00:00:00 16.8 18 Noroeste 27 Noroeste 0.2 -- -- 93
2018-09-14 23:00:00 16.9 8 Sur 18 Oeste 1.4 -- -- 91
2018-09-14 22:00:00 17.1 9 Oeste 21 Oeste 1.6 -- -- 91
2018-09-14 21:00:00 18.3 15 Noroeste 43 Sudeste 1.2 -- -- 85
2018-09-14 20:00:00 19.9 31 Este 45 Este 0 -- -- 73
2018-09-14 19:00:00 23.8 22 Sudoeste 30 Sudoeste 0 -- -- 52
2018-09-14 18:00:00 24 22 Sudoeste 48 Oeste 0 -- -- 53
2018-09-14 17:00:00 28.9 16 Sudoeste 24 Sudoeste 0 -- -- 40
2018-09-14 16:00:00 32 13 Nordeste 24 Norte 0 -- -- 29
2018-09-14 15:00:00 31.1 13 Noroeste 22 Oeste 0 -- -- 32
2018-09-14 14:00:00 30.6 8 Sudoeste 17 Oeste 0 -- -- 34
2018-09-14 13:00:00 29.3 6 Norte 15 Sudoeste 0 -- -- 35
2018-09-14 12:00:00 26.7 6 Oeste 14 Oeste 0 -- -- 41
2018-09-14 11:00:00 25 3 Oeste 7 Sudeste 0 -- -- 47
2018-09-14 10:00:00 22.6 6 Sudeste 9 Sudeste 0 -- -- 62
2018-09-14 09:00:00 20.6 5 Sudeste 6 Sudeste 0 -- -- 60
2018-09-14 08:00:00 20.3 3 Sudeste 5 Sudeste 0 -- -- 59
2018-09-14 07:00:00 20.9 4 Sudeste 6 Sur 0 -- -- 55
2018-09-14 06:00:00 20.4 5 Sur 10 Sudoeste 0 -- -- 60
2018-09-14 05:00:00 20.4 9 Sudoeste 10 Sudoeste 0 -- -- 63
2018-09-14 04:00:00 20.4 8 Sudoeste 10 Sudoeste 0 -- -- 67
2018-09-14 03:00:00 20.9 9 Sudoeste 14 Sudoeste 0 -- -- 68
2018-09-14 02:00:00 21 10 Sudoeste 17 Sudoeste 0 -- -- 70
2018-09-14 01:00:00 22.1 13 Sudoeste 20 Sudoeste 0 -- -- 68
2018-09-14 00:00:00 22.7 8 Sudoeste 13 Oeste 0 -- -- 64
2018-09-13 23:00:00 24 6 Sudoeste 11 Sudoeste 0 -- -- 59
2018-09-13 22:00:00 24.1 10 Sudoeste 14 Sur 0 -- -- 62
2018-09-13 21:00:00 24.2 8 Sur 14 Sur 0 -- -- 66
2018-09-13 20:00:00 25 9 Sur 14 Sur 0 -- -- 69
2018-09-13 19:00:00 23.5 8 Sudoeste 63 Sudeste 1.4 -- -- 69
2018-09-13 18:00:00 27.3 24 Sudoeste 42 Oeste 0 -- -- 53
2018-09-13 17:00:00 31.8 8 Sudeste 26 Sur 0 -- -- 34
2018-09-13 16:00:00 31.3 7 Nordeste 22 Nordeste 0 -- -- 32
2018-09-13 15:00:00 32 8 Norte 23 Este 0 -- -- 31
2018-09-13 14:00:00 31.6 8 Nordeste 18 Nordeste 0 -- -- 31
2018-09-13 13:00:00 30.6 6 Norte 15 Nordeste 0 -- -- 34
2018-09-13 12:00:00 29.6 8 Este 17 Nordeste 0 -- -- 41
2018-09-13 11:00:00 26.5 8 Este 14 Este 0 -- -- 51
2018-09-13 10:00:00 23.8 7 Este 11 Este 0 -- -- 62
2018-09-13 09:00:00 21.5 9 Sudeste 10 Sudeste 0 -- -- 70
2018-09-13 08:00:00 19.7 5 Sudeste -- -- 0 -- -- 81
2018-09-13 07:00:00 19.5 5 Sur 6 Sur 0 -- -- 78
2018-09-13 06:00:00 20.2 3 Sudoeste 6 Oeste 0 -- -- 76
2018-09-13 05:00:00 20.8 6 Oeste 8 Oeste 0 -- -- 73
2018-09-13 04:00:00 21.2 4 Oeste 10 Sudoeste 0 -- -- 73
2018-09-13 03:00:00 21.2 9 Sudoeste 11 Sudoeste 0 -- -- 72
2018-09-13 02:00:00 22 8 Sudoeste 13 Sudoeste 0 -- -- 69
2018-09-13 01:00:00 22.7 10 Sudoeste 15 Oeste 0 -- -- 67
2018-09-13 00:00:00 23.2 11 Oeste 14 Oeste 0 -- -- 68
2018-09-12 23:00:00 24.7 11 Sudoeste 21 Sudoeste 0 -- -- 63
2018-09-12 22:00:00 25.9 17 Sudoeste 26 Sudoeste 0 -- -- 58
2018-09-12 21:00:00 27.6 17 Sudoeste 25 Sur 0 -- -- 49
2018-09-12 20:00:00 29.5 12 Sudeste 17 Sudeste 0 -- -- 38
2018-09-12 19:00:00 30.7 12 Sudoeste 16 Sur 0 -- -- 35
2018-09-12 18:00:00 32.1 9 Este 19 Este 0 -- -- 33
2018-09-12 17:00:00 31.9 6 Este 22 Este 0 -- -- 35
2018-09-12 16:00:00 31.7 9 Nordeste 25 Norte 0 -- -- 34
2018-09-12 15:00:00 30.1 9 Norte 25 Sudeste 0 -- -- 39
2018-09-12 14:00:00 29.8 9 Este 24 Nordeste 0 -- -- 43
2018-09-12 13:00:00 28.7 10 Nordeste 17 Este 0 -- -- 48
2018-09-12 12:00:00 27.2 10 Nordeste 17 Nordeste 0 -- -- 53
2018-09-12 11:00:00 24.8 12 Sudeste 19 Sudeste 0 -- -- 63
2018-09-12 10:00:00 22.2 10 Este 17 Este 0 -- -- 72
2018-09-12 09:00:00 20.1 10 Este 21 Este 0 -- -- 79
2018-09-12 08:00:00 19.1 16 Este 23 Este 0 -- -- 82
2018-09-12 07:00:00 19.7 14 Sudeste 17 Este 0 -- -- 79
2018-09-12 06:00:00 20.4 12 Este 19 Este 0 -- -- 73
2018-09-12 05:00:00 20.4 12 Sudeste 14 Sudeste 0 -- -- 72
2018-09-12 04:00:00 20.6 10 Sudeste 14 Sudeste 0 -- -- 71
2018-09-12 03:00:00 21 9 Sudeste 22 Sudeste 0 -- -- 66
2018-09-12 02:00:00 22.3 19 Sudeste 25 Sudeste 0 -- -- 62
2018-09-12 01:00:00 23.2 20 Sudeste 26 Sudeste 0 -- -- 59
2018-09-12 00:00:00 23.8 15 Sudeste 19 Sudeste 0 -- -- 50
2018-09-11 23:00:00 24.3 14 Sudeste 14 Sudeste 0 -- -- 48
2018-09-11 22:00:00 25.3 11 Sudeste 14 Sudeste 0 -- -- 46
2018-09-11 21:00:00 27.1 12 Sudeste 23 Sudeste 0 -- -- 44
2018-09-11 20:00:00 28 14 Sudeste 26 Sudeste 0 -- -- 42
2018-09-11 19:00:00 29.8 17 Este 31 Nordeste 0 -- -- 36
2018-09-11 18:00:00 29.2 18 Nordeste 30 Este 0 -- -- 37
2018-09-11 17:00:00 30 14 Este 29 Este 0 -- -- 35
2018-09-11 16:00:00 30.3 15 Este 37 Nordeste 0 -- -- 35
2018-09-11 15:00:00 29.2 14 Este 28 Nordeste 0 -- -- 38
2018-09-11 14:00:00 28.3 16 Este 27 Este 0 -- -- 42
2018-09-11 13:00:00 28.2 15 Este 28 Nordeste 0 -- -- 44
2018-09-11 12:00:00 26.4 14 Nordeste 22 Nordeste 0 -- -- 49
2018-09-11 11:00:00 25 11 Este 18 Sudeste 0 -- -- 54
2018-09-11 10:00:00 22.4 12 Este 18 Este 0 -- -- 61
2018-09-11 09:00:00 18.9 10 Este 13 Este 0 -- -- 67
2018-09-11 08:00:00 19.1 13 Sudeste 19 Este 0 -- -- 67
2018-09-11 07:00:00 16.6 12 Este 14 Este 0 -- -- 72
2018-09-11 06:00:00 17.9 13 Este 21 Este 0 -- -- 66
2018-09-11 05:00:00 20.5 15 Este 20 Este 0 -- -- 60
2018-09-11 04:00:00 19.7 16 Este 19 Este 0 -- -- 62
2018-09-11 03:00:00 19.7 15 Este 23 Este 0 -- -- 59
2018-09-11 02:00:00 21.9 17 Este 21 Este 0 -- -- 53
2018-09-11 01:00:00 20.5 15 Este 17 Este 0 -- -- 52
2018-09-11 00:00:00 21.5 15 Este 21 Este 0 -- -- 48
2018-09-10 23:00:00 22.8 17 Este 19 Este 0 -- -- 44
2018-09-10 22:00:00 23.7 15 Este 21 Este 0 -- -- 43
2018-09-10 21:00:00 25.2 14 Este 25 Este 0 -- -- 39
2018-09-10 20:00:00 27.7 20 Nordeste 35 Este 0 -- -- 33
2018-09-10 19:00:00 28.9 24 Nordeste 35 Nordeste 0 -- -- 32
2018-09-10 18:00:00 29.5 26 Nordeste 41 Nordeste 0 -- -- 31
2018-09-10 17:00:00 29.5 24 Nordeste 40 Nordeste 0 -- -- 30
2018-09-10 16:00:00 29.5 19 Nordeste 42 Nordeste 0 -- -- 30
2018-09-10 15:00:00 29.3 26 Este 41 Nordeste 0 -- -- 30
2018-09-10 14:00:00 28.3 23 Nordeste 45 Este 0 -- -- 35
2018-09-10 13:00:00 27.2 24 Nordeste 36 Nordeste 0 -- -- 38
2018-09-10 12:00:00 25.7 14 Nordeste 26 Este 0 -- -- 44
2018-09-10 11:00:00 24.2 9 Este 15 Este 0 -- -- 48
2018-09-10 10:00:00 20.6 3 Sudoeste 13 Sudeste 0 -- -- 63
2018-09-10 09:00:00 18.5 8 Este 13 Sudeste 0 -- -- 70
2018-09-10 08:00:00 16.9 9 Sudeste 13 Sudeste 0 -- -- 75
2018-09-10 07:00:00 17 13 Sudeste 16 Sudeste 0 -- -- 71
2018-09-10 06:00:00 16.6 8 Sudeste 15 Este 0 -- -- 73
2018-09-10 05:00:00 17.7 13 Este 17 Este 0 -- -- 71
2018-09-10 04:00:00 17.3 6 Este 10 Oeste 0 -- -- 72
2018-09-10 03:00:00 18.6 10 Sudeste 22 Este 0 -- -- 68
2018-09-10 02:00:00 17.4 11 Nordeste 15 Nordeste 0 -- -- 74
2018-09-10 01:00:00 19.4 10 Sudeste 22 Sudeste 0 -- -- 68
2018-09-10 00:00:00 20.2 18 Sudeste 24 Este 0 -- -- 64
2018-09-09 23:00:00 20.4 15 Este 23 Este 0 -- -- 63
2018-09-09 22:00:00 21.1 14 Nordeste 21 Nordeste 0 -- -- 55
2018-09-09 21:00:00 22.4 18 Nordeste 30 Nordeste 0 -- -- 50
2018-09-09 20:00:00 24.9 8 Nordeste 15 Sudeste 0 -- -- 45
2018-09-09 19:00:00 26.5 5 Este 23 Este 0 -- -- 42
2018-09-09 18:00:00 25.5 10 Este 33 Norte 0 -- -- 47
2018-09-09 17:00:00 27.1 18 Norte 32 Nordeste 0 -- -- 48
2018-09-09 16:00:00 26.1 21 Norte 30 Norte 0 -- -- 48
2018-09-09 15:00:00 24.3 19 Norte 30 Norte 0 -- -- 56
2018-09-09 14:00:00 22.4 9 Norte 14 Norte 0 -- -- 62
2018-09-09 13:00:00 19.5 3 Nordeste 19 Nordeste 0 -- -- 69
2018-09-09 12:00:00 20.2 10 Este 19 Nordeste 0 -- -- 68
2018-09-09 11:00:00 20.1 16 Nordeste 26 Este 0 -- -- 65
2018-09-09 10:00:00 20.2 18 Nordeste 23 Nordeste 0 -- -- 63
2018-09-09 09:00:00 18.1 12 Nordeste 17 Este 0 -- -- 69
2018-09-09 08:00:00 17.7 2 Norte 4 Nordeste 0 -- -- 69
2018-09-09 07:00:00 17.7 2 Nordeste 5 Sudeste 0 -- -- 68
2018-09-09 06:00:00 17.8 2 Sudeste 6 Sudeste 0 -- -- 68
2018-09-09 05:00:00 17.7 4 Sur 9 Sur 0 -- -- 66
2018-09-09 04:00:00 17.7 3 Sudoeste 7 Noroeste 0 -- -- 64
2018-09-09 03:00:00 17.8 3 Oeste 8 Noroeste 0 -- -- 65
2018-09-09 02:00:00 17 6 Sudoeste 13 Sudoeste 0 -- -- 70
2018-09-09 01:00:00 18 7 Sur 10 Sudeste 0 -- -- 72
2018-09-09 00:00:00 18.4 6 Sur 16 Sur 0 -- -- 71
2018-09-08 23:00:00 19.2 15 Sudeste 26 Sudeste 0 -- -- 69
2018-09-08 22:00:00 20.2 19 Sudeste 27 Sudeste 0 -- -- 62
2018-09-08 21:00:00 21.5 22 Sudeste 37 Sudeste 0 -- -- 57
2018-09-08 20:00:00 23.4 27 Sudeste 37 Sudeste 0 -- -- 49
2018-09-08 19:00:00 25 25 Sudeste 36 Sudeste 0 -- -- 44
2018-09-08 18:00:00 26.2 23 Sur 37 Sur 0 -- -- 40
2018-09-08 17:00:00 25.4 23 Sur 37 Sur 0 -- -- 43
2018-09-08 16:00:00 25.9 25 Sur 40 Sur 0 -- -- 44
2018-09-08 15:00:00 25.3 28 Sur 41 Sur 0 -- -- 46
2018-09-08 14:00:00 25.1 28 Sur 37 Sur 0 -- -- 48
2018-09-08 13:00:00 24.1 17 Sudeste 32 Sur 0 -- -- 48
2018-09-08 12:00:00 22.9 18 Sudeste 27 Sur 0 -- -- 51
2018-09-08 11:00:00 22.1 15 Sur 24 Sur 0 -- -- 54
2018-09-08 10:00:00 19.7 14 Sur 19 Sudeste 0 -- -- 61
2018-09-08 09:00:00 17.8 12 Sudeste 18 Este 0 -- -- 67
2018-09-08 08:00:00 17.9 15 Sudeste 20 Sudeste 0 -- -- 67
2018-09-08 07:00:00 18.2 12 Sudeste 18 Sudeste 0 -- -- 65
2018-09-08 06:00:00 18.8 14 Sudeste 27 Sudeste 0 -- -- 64
2018-09-08 05:00:00 19.8 16 Sudeste 27 Sudeste 0 -- -- 61
2018-09-08 04:00:00 18.9 5 Sur 13 Sudoeste 0 -- -- 65
2018-09-08 03:00:00 19.3 9 Sudoeste 13 Sudoeste 0 -- -- 62
2018-09-08 02:00:00 19.8 6 Sur 10 Sur 0 -- -- 61
2018-09-08 01:00:00 19.9 6 Sudoeste 11 Sudoeste 0 -- -- 60
2018-09-08 00:00:00 20.7 6 Sudoeste 9 Sudoeste 0 -- -- 57
2018-09-07 23:00:00 21.4 4 Sudoeste 9 Sur 0 -- -- 54
2018-09-07 22:00:00 21.9 6 Sudoeste 13 Sudoeste 0 -- -- 52
2018-09-07 21:00:00 23.1 8 Sudoeste 17 Sur 0 -- -- 49
2018-09-07 20:00:00 24.1 12 Sur 28 Sur 0 -- -- 46
2018-09-07 19:00:00 25.1 22 Sur 42 Sur 0 -- -- 41
2018-09-07 18:00:00 26.5 23 Sur 38 Sur 0 -- -- 36
2018-09-07 17:00:00 26.8 24 Sur 38 Sur 0 -- -- 30
2018-09-07 16:00:00 26.8 25 Sur 41 Sur 0 -- -- 27
2018-09-07 15:00:00 26.9 26 Sur 42 Sur 0 -- -- 36
2018-09-07 14:00:00 26.4 18 Sudeste 33 Sudeste 0 -- -- 42
2018-09-07 13:00:00 25.4 19 Sudeste 37 Sudeste 0 -- -- 47
2018-09-07 12:00:00 24.3 22 Sudeste 31 Sudeste 0 -- -- 48
2018-09-07 11:00:00 21.5 16 Este 25 Este 0 -- -- 58
2018-09-07 10:00:00 17.5 13 Este 24 Este 0 -- -- 71
2018-09-07 09:00:00 14.7 17 Este 21 Este 0 -- -- 73
2018-09-07 08:00:00 15.8 13 Sudeste 15 Sudeste 0 -- -- 73
2018-09-07 07:00:00 16.2 8 Sudeste 10 Sudeste 0 -- -- 69
2018-09-07 06:00:00 16.5 6 Sudeste 9 Sudeste 0 -- -- 72
2018-09-07 05:00:00 16.7 3 Sur 5 Sudeste 0 -- -- 64
2018-09-07 04:00:00 17.2 4 Oeste 9 Oeste 0 -- -- 64
2018-09-07 03:00:00 17.6 7 Oeste 9 Oeste 0 -- -- 56
2018-09-07 02:00:00 18.9 6 Oeste 8 Oeste 0 -- -- 52
2018-09-07 01:00:00 19.7 6 Sudoeste 9 Sudoeste 0 -- -- 47
2018-09-07 00:00:00 20.3 4 Sur 12 Sudoeste 0 -- -- 46
2018-09-06 23:00:00 21.2 6 Oeste 15 Noroeste 0 -- -- 44
2018-09-06 22:00:00 22.5 9 Oeste 16 Oeste 0 -- -- 41
2018-09-06 21:00:00 24.1 14 Oeste 24 Oeste 0 -- -- 38
2018-09-06 20:00:00 26.3 17 Oeste 24 Noroeste 0 -- -- 36
2018-09-06 19:00:00 27.6 9 Oeste 28 Sudoeste 0 -- -- 34
2018-09-06 18:00:00 27.3 9 Sudoeste 26 Oeste 0 -- -- 35
2018-09-06 17:00:00 27.5 14 Oeste 35 Sudoeste 0 -- -- 34
2018-09-06 16:00:00 27.9 11 Noroeste 28 Oeste 0 -- -- 36
2018-09-06 15:00:00 26.3 9 Noroeste 19 Noroeste 0 -- -- 41
2018-09-06 14:00:00 25.2 10 Sudoeste 19 Sudoeste 0 -- -- 44
2018-09-06 13:00:00 23.4 8 Oeste 14 Oeste 0 -- -- 54
2018-09-06 12:00:00 19.7 4 Oeste 9 Noroeste 0 -- -- 71
2018-09-06 11:00:00 15.3 2 Sudoeste 6 Sudoeste 0 -- -- 97
2018-09-06 10:00:00 14.2 3 Noroeste 10 Noroeste 0 -- -- 97
2018-09-06 09:00:00 13.6 9 Oeste 13 Oeste 0 -- -- 95
2018-09-06 08:00:00 13.5 5 Noroeste 8 Oeste 0 -- -- 94
2018-09-06 07:00:00 14.1 5 Sudoeste 8 Sudoeste 0 -- -- 92
2018-09-06 06:00:00 14.4 6 Sudoeste 8 Sudoeste 0 -- -- 91
2018-09-06 05:00:00 14.7 7 Sudoeste 13 Oeste 0 -- -- 89
2018-09-06 04:00:00 15.3 10 Oeste 14 Sudoeste 0 -- -- 86
2018-09-06 03:00:00 16 8 Sudoeste 14 Sudoeste 0 -- -- 81
2018-09-06 02:00:00 16.8 6 Sudoeste 10 Sudoeste 0 -- -- 76
2018-09-06 01:00:00 17.7 8 Sudoeste 15 Oeste 0 -- -- 64
2018-09-06 00:00:00 18.4 11 Oeste 15 Oeste 0 -- -- 60
2018-09-05 23:00:00 19 10 Sudoeste 14 Sudoeste 0 -- -- 55
2018-09-05 22:00:00 20.1 11 Oeste 18 Oeste 0 -- -- 51
2018-09-05 21:00:00 21.5 14 Oeste 28 Sudoeste 0 -- -- 48
2018-09-05 20:00:00 23.6 19 Sudoeste 32 Oeste 0 -- -- 46
2018-09-05 19:00:00 23.9 19 Oeste 30 Oeste 0 -- -- 46
2018-09-05 18:00:00 24.1 22 Oeste 33 Oeste 0 -- -- 46
2018-09-05 17:00:00 23.9 19 Oeste 34 Sur 0 -- -- 48
2018-09-05 16:00:00 24.3 23 Sudoeste 33 Sur 0 -- -- 45
2018-09-05 15:00:00 23.9 19 Sudoeste 31 Sudoeste 0 -- -- 47
2018-09-05 14:00:00 22.5 11 Sudoeste 24 Sudoeste 0 -- -- 54
2018-09-05 13:00:00 22.2 14 Sudoeste 27 Sudoeste 0 -- -- 55
2018-09-05 12:00:00 21.3 12 Sur 24 Sudeste 0 -- -- 58
2018-09-05 11:00:00 19.4 18 Sur 23 Sur 0 -- -- 68
2018-09-05 10:00:00 18.1 5 Sudeste 12 Este 0 -- -- 76
2018-09-05 09:00:00 17.4 6 Sudeste 8 Sudeste 0 -- -- 78
2018-09-05 08:00:00 17.2 5 Sudeste 7 Sudeste 0 -- -- 81
2018-09-05 07:00:00 17.2 4 Sur 7 Sur 0 -- -- 81
2018-09-05 06:00:00 16.9 5 Sur 9 Sur 0 -- -- 81
2018-09-05 05:00:00 16.6 4 Sudoeste 12 Sudoeste 0 -- -- 81
2018-09-05 04:00:00 17.2 6 Sudoeste 10 Sudoeste 0 -- -- 79
2018-09-05 03:00:00 16.6 8 Sur 16 Sudoeste 0 -- -- 79
2018-09-05 02:00:00 17.5 13 Sudoeste 17 Sudoeste 0 -- -- 75
2018-09-05 01:00:00 17.3 11 Oeste 14 Oeste 0 -- -- 73
2018-09-05 00:00:00 18.4 7 Oeste 15 Sudoeste 0 -- -- 67
2018-09-04 23:00:00 19.5 12 Sudoeste 18 Sudoeste 0 -- -- 62
2018-09-04 22:00:00 20.7 11 Sudoeste 19 Sudoeste 0 -- -- 56
2018-09-04 21:00:00 22.6 17 Sudoeste 24 Sudoeste 0 -- -- 51
2018-09-04 20:00:00 24.7 17 Sudoeste 30 Oeste 0 -- -- 45
2018-09-04 19:00:00 25.9 17 Sur 30 Sur 0 -- -- 41
2018-09-04 18:00:00 26.3 18 Sudoeste 31 Sudoeste 0 -- -- 42
2018-09-04 17:00:00 26.6 10 Oeste 29 Sudoeste 0 -- -- 40
2018-09-04 16:00:00 26.2 15 Sudoeste 26 Sudoeste 0 -- -- 43
2018-09-04 15:00:00 25.1 15 Sur 27 Sudoeste 0 -- -- 48
2018-09-04 14:00:00 23.5 13 Sur 23 Sur 0 -- -- 51
2018-09-04 13:00:00 21.9 6 Sudoeste 18 Sudoeste 0 -- -- 58
2018-09-04 12:00:00 21.1 10 Sur 17 Sudoeste 0 -- -- 60
2018-09-04 11:00:00 18.6 11 Sur 19 Sur 0 -- -- 69
2018-09-04 10:00:00 17.6 7 Sudoeste 17 Sur 0 -- -- 74
2018-09-04 09:00:00 16.9 9 Sur 17 Sudeste 0 -- -- 77
2018-09-04 08:00:00 16.6 11 Sudeste 17 Sur 0 -- -- 82
2018-09-04 07:00:00 16.3 13 Sudeste 23 Sudeste 0 -- -- 88
2018-09-04 06:00:00 16.1 11 Sur 13 Sur 0 -- -- 89
2018-09-04 05:00:00 16.3 5 Sur 9 Sur 0 -- -- 85
2018-09-04 04:00:00 16.1 5 Sudoeste 11 Sudoeste 0 -- -- 84
2018-09-04 03:00:00 16.9 8 Oeste 12 Sudoeste 0 -- -- 83
2018-09-04 02:00:00 17.6 10 Oeste 14 Sudoeste 0 -- -- 78
2018-09-04 01:00:00 18.7 8 Oeste 15 Oeste 0 -- -- 73
2018-09-04 00:00:00 19.8 11 Oeste 15 Oeste 0 -- -- 69
2018-09-03 23:00:00 21 7 Sur 18 Sudoeste 0 -- -- 64
2018-09-03 22:00:00 22.3 15 Sudoeste 28 Sudoeste 0 -- -- 60
2018-09-03 21:00:00 24.4 21 Sudoeste 28 Sudoeste 0 -- -- 53
2018-09-03 20:00:00 26.4 18 Sudoeste 27 Sudoeste 0 -- -- 45
2018-09-03 19:00:00 27.9 14 Sudoeste 28 Sudoeste 0 -- -- 40
2018-09-03 18:00:00 28.5 7 Sur 28 Sur 0 -- -- 39
2018-09-03 17:00:00 28.2 11 Sur 35 Sudoeste 0 -- -- 41
2018-09-03 16:00:00 27.6 19 Sudoeste 34 Sudoeste 0 -- -- 43
2018-09-03 15:00:00 27.5 10 Sudeste 27 Sur 0 -- -- 42
2018-09-03 14:00:00 26.4 13 Sudeste 25 Sudeste 0 -- -- 49
2018-09-03 13:00:00 24.9 11 Sur 20 Sur 0 -- -- 55
2018-09-03 12:00:00 21.7 8 Sudoeste 24 Sur 0 -- -- 67
2018-09-03 11:00:00 21.3 9 Sudeste 18 Sur 0 -- -- 70
2018-09-03 10:00:00 20.1 10 Sudeste 17 Sudeste 0 -- -- 78
2018-09-03 09:00:00 18.4 9 Sudeste 14 Sudeste 0 -- -- 85
2018-09-03 08:00:00 18.1 11 Sudeste 17 Sudeste 0 -- -- 85
2018-09-03 07:00:00 19.1 19 Sur 24 Sur 0 -- -- 82
2018-09-03 06:00:00 20 14 Sur 22 Sur 0 -- -- 76
2018-09-03 05:00:00 20.5 18 Sur 26 Sudeste 0 -- -- 81
2018-09-03 04:00:00 20.6 22 Sur 28 Sur 0 -- -- 82
2018-09-03 03:00:00 21.3 23 Sur 32 Sur 0 -- -- 76
2018-09-03 02:00:00 22 13 Sur 28 Sudoeste 0 -- -- 66
2018-09-03 01:00:00 22.9 17 Sudoeste 22 Sudoeste 0 -- -- 61
2018-09-03 00:00:00 24.3 9 Sudeste 21 Sur 0 -- -- 58
2018-09-02 23:00:00 25.6 23 Sur 29 Sur 0 -- -- 55
2018-09-02 22:00:00 27 15 Sudoeste 24 Sudoeste 0 -- -- 52
2018-09-02 21:00:00 29.1 19 Sudoeste 32 Sudoeste 0 -- -- 47
2018-09-02 20:00:00 32.4 27 Sur 36 Sur 0 -- -- 34
2018-09-02 19:00:00 33.7 30 Sur 40 Sur 0 -- -- 29
2018-09-02 18:00:00 35 26 Sur 38 Sur 0 -- -- 26
2018-09-02 17:00:00 35.1 23 Sudeste 42 Sur 0 -- -- 25
2018-09-02 16:00:00 34.9 22 Sur 33 Sur 0 -- -- 27
2018-09-02 15:00:00 35.5 17 Sudeste 29 Sur 0 -- -- 27
2018-09-02 14:00:00 34.1 14 Sudeste 33 Sur 0 -- -- 30
2018-09-02 13:00:00 32.3 13 Este 24 Este 0 -- -- 36
2018-09-02 12:00:00 30.1 9 Este 19 Este 0 -- -- 41
2018-09-02 11:00:00 27.3 17 Este 21 Este 0 -- -- 47
2018-09-02 10:00:00 24.8 14 Este 19 Este 0 -- -- 53
2018-09-02 09:00:00 21.3 14 Este 21 Este 0 -- -- 61
2018-09-02 08:00:00 21.6 9 Este 10 Este 0 -- -- 62
2018-09-02 07:00:00 21.3 0 Calma 8 Sur 0 -- -- 65
2018-09-02 06:00:00 20.9 7 Sur 14 Nordeste 0 -- -- 68
2018-09-02 05:00:00 20.8 11 Nordeste 13 Nordeste 0 -- -- 67
2018-09-02 04:00:00 23.2 2 Norte 6 Oeste 0 -- -- 61
2018-09-02 03:00:00 23.9 4 Noroeste 9 Noroeste 0 -- -- 58
2018-09-02 02:00:00 24.8 5 Oeste 6 Oeste 0 -- -- 55
2018-09-02 01:00:00 25.4 3 Oeste 13 Oeste 0 -- -- 53
2018-09-02 00:00:00 26 8 Oeste 18 Sur 0 -- -- 46
2018-09-01 23:00:00 26.6 8 Sur 18 Sudeste 0 -- -- 37
2018-09-01 22:00:00 28.1 15 Sudeste 19 Sudeste 0 -- -- 34
2018-09-01 21:00:00 30.6 11 Sur 23 Sur 0 -- -- 27
2018-09-01 20:00:00 33.3 16 Sur 31 Sur 0 -- -- 24
2018-09-01 19:00:00 34.3 21 Sur 34 Sur 0 -- -- 25
2018-09-01 18:00:00 34.6 24 Sudeste 37 Sudeste 0 -- -- 26
2018-09-01 17:00:00 35.1 21 Sudeste 42 Sudeste 0 -- -- 25
2018-09-01 16:00:00 34.9 25 Sudeste 40 Sudeste 0 -- -- 25
2018-09-01 15:00:00 34.6 24 Sudeste 44 Sudeste 0 -- -- 26
2018-09-01 14:00:00 33.9 31 Sudeste 45 Sudeste 0 -- -- 27
2018-09-01 13:00:00 32.7 22 Sudeste 38 Sudeste 0 -- -- 29
2018-09-01 12:00:00 31.3 24 Sudeste 34 Sudeste 0 -- -- 31
2018-09-01 11:00:00 29.3 18 Este 35 Este 0 -- -- 35
2018-09-01 10:00:00 26.6 24 Sudeste 37 Sudeste 0 -- -- 41
2018-09-01 09:00:00 23.9 9 Sudeste 24 Este 0 -- -- 50
2018-09-01 08:00:00 23.3 21 Este 25 Este 0 -- -- 50
2018-09-01 07:00:00 22.7 15 Sudeste 21 Este 0 -- -- 51
2018-09-01 06:00:00 21.6 16 Este 23 Sudeste 0 -- -- 48
2018-09-01 05:00:00 24.1 19 Este 24 Este 0 -- -- 43
2018-09-01 04:00:00 25.7 13 Este 23 Este 0 -- -- 40
2018-09-01 03:00:00 26.4 16 Este 20 Este 0 -- -- 37
2018-09-01 02:00:00 27.4 12 Este 17 Sudeste 0 -- -- 36
2018-09-01 01:00:00 27.4 13 Sudeste 18 Sudeste 0 -- -- 36
2018-09-01 00:00:00 27.6 6 Sudeste 8 Sur 0 -- -- 35
2018-08-31 23:00:00 27.8 3 Nordeste 10 Sudeste 0 -- -- 33
2018-08-31 22:00:00 28.8 8 Sudeste 14 Sur 0 -- -- 33
2018-08-31 21:00:00 31.1 14 Sudeste 22 Sudeste 0 -- -- 30
2018-08-31 20:00:00 33.3 5 Este 22 Sudeste 0 -- -- 28
2018-08-31 19:00:00 34.6 13 Sudeste 30 Sur 0 -- -- 27
2018-08-31 18:00:00 35 11 Sur 25 Sur 0 -- -- 27
2018-08-31 17:00:00 35.2 12 Este 41 Sur 0 -- -- 25
2018-08-31 16:00:00 35.4 9 Sur 26 Sudeste 0 -- -- 25
2018-08-31 15:00:00 35 13 Sudeste 33 Sudeste 0 -- -- 26
2018-08-31 14:00:00 33.6 13 Sudeste 23 Sudeste 0 -- -- 28
2018-08-31 13:00:00 32.6 12 Este 24 Este 0 -- -- 29
2018-08-31 12:00:00 31.2 6 Este 17 Este 0 -- -- 33
2018-08-31 11:00:00 29 10 Este 18 Este 0 -- -- 38
2018-08-31 10:00:00 25.9 12 Este 17 Este 0 -- -- 44
2018-08-31 09:00:00 23.6 12 Este 16 Este 0 -- -- 48
2018-08-31 08:00:00 22.4 13 Sudeste 20 Este 0 -- -- 49
2018-08-31 07:00:00 22.2 12 Este 20 Este 0 -- -- 49
2018-08-31 06:00:00 22.3 16 Sudeste 21 Sudeste 0 -- -- 51
2018-08-31 05:00:00 23 4 Sudoeste 6 Sur 0 -- -- 48
2018-08-31 04:00:00 22.7 6 Sur 6 Sur 0 -- -- 47
2018-08-31 03:00:00 23.2 4 Sur 11 Sudoeste 0 -- -- 47
2018-08-31 02:00:00 24 8 Sudoeste 12 Sur 0 -- -- 46
2018-08-31 01:00:00 24.6 8 Sur 12 Sur 0 -- -- 45
2018-08-31 00:00:00 25.2 8 Sur 17 Sur 0 -- -- 44
2018-08-30 23:00:00 26.1 13 Sudeste 16 Este 0 -- -- 38
2018-08-30 22:00:00 27.1 9 Sudeste 17 Sudeste 0 -- -- 36
2018-08-30 21:00:00 29.3 16 Sudeste 27 Sur 0 -- -- 33
2018-08-30 20:00:00 32.2 5 Sur 16 Norte 0 -- -- 24
2018-08-30 19:00:00 33.8 9 Norte 20 Sudoeste 0 -- -- 23
2018-08-30 18:00:00 34.3 5 Sur 15 Este 0 -- -- 21
2018-08-30 17:00:00 33.7 12 Sur 35 Sur 0 -- -- 22
2018-08-30 16:00:00 33.3 10 Sudeste 22 Este 0 -- -- 24
2018-08-30 15:00:00 32.9 13 Sudeste 33 Sudeste 0 -- -- 24
2018-08-30 14:00:00 32.6 7 Este 19 Este 0 -- -- 25
2018-08-30 13:00:00 31 6 Este 19 Sudeste 0 -- -- 28
2018-08-30 12:00:00 29.5 10 Este 17 Este 0 -- -- 34
2018-08-30 11:00:00 26.1 5 Este 11 Este 0 -- -- 46
2018-08-30 10:00:00 22.2 2 Oeste 4 Oeste 0 -- -- 56
2018-08-30 09:00:00 20.2 0 Calma -- -- 0 -- -- 61
2018-08-30 08:00:00 19 3 Oeste 6 Sudoeste 0 -- -- 65
2018-08-30 07:00:00 19.4 5 Sudoeste 7 Sudoeste 0 -- -- 63
2018-08-30 06:00:00 19.8 4 Sudoeste 7 Sudoeste 0 -- -- 61
2018-08-30 05:00:00 19.8 6 Sudoeste 8 Sudoeste 0 -- -- 61
2018-08-30 04:00:00 19.2 6 Sur 9 Sudoeste 0 -- -- 59
2018-08-30 03:00:00 19.6 5 Sudoeste 9 Sudoeste 0 -- -- 54
2018-08-30 02:00:00 20 6 Oeste 9 Oeste 0 -- -- 48
2018-08-30 01:00:00 21.4 5 Sudoeste 10 Oeste 0 -- -- 43
2018-08-30 00:00:00 22.6 7 Oeste 10 Noroeste 0 -- -- 36
2018-08-29 23:00:00 22.9 6 Noroeste 17 Norte 0 -- -- 34
2018-08-29 22:00:00 24.2 15 Norte 20 Norte 0 -- -- 34
2018-08-29 21:00:00 26.5 19 Norte 31 Norte 0 -- -- 34
2018-08-29 20:00:00 29.2 20 Norte 29 Norte 0 -- -- 31
2018-08-29 19:00:00 30.6 16 Norte 28 Noroeste 0 -- -- 29
2018-08-29 18:00:00 31.1 12 Noroeste 26 Noroeste 0 -- -- 26
2018-08-29 17:00:00 31 13 Norte 23 Norte 0 -- -- 26
2018-08-29 16:00:00 29.9 9 Noroeste 18 Norte 0 -- -- 31
2018-08-29 15:00:00 28.4 10 Noroeste 18 Oeste 0 -- -- 38
2018-08-29 14:00:00 26.3 8 Noroeste 21 Noroeste 0 -- -- 45
2018-08-29 13:00:00 24.6 8 Noroeste 17 Oeste 0 -- -- 51
2018-08-29 12:00:00 21.6 7 Norte 13 Oeste 0 -- -- 62
2018-08-29 11:00:00 18.4 5 Oeste 14 Oeste 0 -- -- 76
2018-08-29 10:00:00 15.8 8 Oeste 14 Oeste 0 -- -- 91
2018-08-29 09:00:00 14.8 8 Oeste 13 Sudoeste 0 -- -- 96
2018-08-29 08:00:00 14.6 6 Oeste 12 Oeste 0 -- -- 95
2018-08-29 07:00:00 14.7 8 Oeste 14 Oeste 0 -- -- 94
2018-08-29 06:00:00 14.7 7 Oeste 11 Sudoeste 0 -- -- 92
2018-08-29 05:00:00 14.8 7 Oeste 14 Sudoeste 0 -- -- 88
2018-08-29 04:00:00 15.6 10 Sudoeste 15 Oeste 0 -- -- 83
2018-08-29 03:00:00 16.5 9 Oeste 14 Oeste 0 -- -- 78
2018-08-29 02:00:00 17.8 10 Sudoeste 15 Oeste 0 -- -- 72
2018-08-29 01:00:00 19.1 12 Oeste 16 Oeste 0 -- -- 67
2018-08-29 00:00:00 20.6 9 Oeste 15 Oeste 0 -- -- 58
2018-08-28 23:00:00 22.5 12 Oeste 21 Oeste 0 -- -- 50
2018-08-28 22:00:00 24.3 17 Oeste 28 Oeste 0 -- -- 45
2018-08-28 21:00:00 26.5 26 Oeste 34 Oeste 0 -- -- 38
2018-08-28 20:00:00 29 26 Oeste 38 Oeste 0 -- -- 36
2018-08-28 19:00:00 31.6 14 Sudoeste 36 Sudoeste 0 -- -- 27
2018-08-28 18:00:00 32.2 19 Sur 38 Sudoeste 0 -- -- 27
2018-08-28 17:00:00 32.6 20 Sur 40 Sudoeste 0 -- -- 24
2018-08-28 16:00:00 32.4 24 Sudoeste 41 Sudoeste 0 -- -- 24
2018-08-28 15:00:00 31.6 18 Sudoeste 37 Sudoeste 0 -- -- 29
2018-08-28 14:00:00 31.1 18 Sudoeste 33 Sudoeste 0 -- -- 27
2018-08-28 13:00:00 30 8 Sudoeste 23 Este 0 -- -- 30
2018-08-28 12:00:00 28.1 6 Este 20 Sudeste 0 -- -- 46
2018-08-28 11:00:00 25.2 8 Sudeste 12 Este 0 -- -- 55
2018-08-28 10:00:00 22.8 6 Este 15 Sudeste 0 -- -- 69
2018-08-28 09:00:00 19.5 12 Sudeste 19 Sudeste 0 -- -- 82
2018-08-28 08:00:00 18.4 17 Sudeste 26 Sudeste 0 -- -- 88
2018-08-28 07:00:00 18.6 20 Sudeste 29 Sudeste 0 -- -- 87
2018-08-28 06:00:00 18.9 22 Sudeste 31 Sudeste 0 -- -- 86
2018-08-28 05:00:00 19.5 23 Sudeste 31 Sudeste 0 -- -- 83
2018-08-28 04:00:00 20.4 8 Sudeste 38 Sur 0 -- -- 76
2018-08-28 03:00:00 21.3 29 Sur 63 Sur 0 -- -- 73
2018-08-28 02:00:00 23 47 Sur 68 Sur 0 -- -- 64
2018-08-28 01:00:00 24.3 17 Sur 37 Sur 0 -- -- 54
2018-08-28 00:00:00 26.4 8 Sudoeste 37 Sur 0 -- -- 44
2018-08-27 23:00:00 27.7 12 Sudoeste 23 Sudoeste 0 -- -- 39
2018-08-27 22:00:00 29 11 Sudeste 28 Sur 0 -- -- 30
2018-08-27 21:00:00 31.3 16 Sur 22 Sur 0 -- -- 28
2018-08-27 20:00:00 33.3 18 Sur 41 Sur 0 -- -- 25
2018-08-27 19:00:00 34.7 28 Sur 48 Sur 0 -- -- 23
2018-08-27 18:00:00 36.9 26 Sudeste 48 Sudeste 0 -- -- 20
2018-08-27 17:00:00 36.9 30 Nordeste 41 Nordeste 0 -- -- 20
2018-08-27 16:00:00 36.1 25 Nordeste 36 Nordeste 0 -- -- 20
2018-08-27 15:00:00 34.6 16 Nordeste 24 Nordeste 0 -- -- 21
2018-08-27 14:00:00 29.4 12 Sudeste 69 Sur 0 -- -- 29
2018-08-27 13:00:00 31.9 24 Sur 43 Sudeste 0 -- -- 24
2018-08-27 12:00:00 31.5 20 Este 33 Sudeste 0 -- -- 25
2018-08-27 11:00:00 29.3 17 Este 24 Este 0 -- -- 29
2018-08-27 10:00:00 26.9 20 Este 28 Este 0 -- -- 35
2018-08-27 09:00:00 25.7 15 Sur 32 Sur 0 -- -- 38
2018-08-27 08:00:00 24.3 12 Sudeste 24 Este 0 -- -- 37
2018-08-27 07:00:00 25.2 13 Este 19 Este 0 -- -- 32
2018-08-27 06:00:00 24.1 16 Este 17 Este 0 -- -- 31
2018-08-27 05:00:00 24.4 9 Nordeste 10 Nordeste 0 -- -- 29
2018-08-27 04:00:00 25.3 6 Nordeste 8 Nordeste 0 -- -- 27
2018-08-27 03:00:00 26.5 3 Norte 4 Norte 0 -- -- 27
2018-08-27 02:00:00 27 3 Noroeste 6 Sudeste 0 -- -- 27
2018-08-27 01:00:00 26.7 4 Sudeste 8 Sudeste 0 -- -- 31
2018-08-27 00:00:00 26.8 4 Sudeste 6 Sudeste 0 -- -- 30
2018-08-26 23:00:00 28.8 3 Sur 12 Nordeste 0 -- -- 23
2018-08-26 22:00:00 28.8 5 Sudoeste 15 Noroeste 0 -- -- 23
2018-08-26 21:00:00 31.1 14 Noroeste 26 Noroeste 0 -- -- 21
2018-08-26 20:00:00 34.2 17 Noroeste 28 Oeste 0 -- -- 19
2018-08-26 19:00:00 35.3 19 Oeste 32 Oeste 0 -- -- 18
2018-08-26 18:00:00 35.8 14 Noroeste 31 Oeste 0 -- -- 17
2018-08-26 17:00:00 36 21 Sur 34 Sur 0 -- -- 17
2018-08-26 16:00:00 35.2 10 Sur 31 Sur 0 -- -- 17
2018-08-26 15:00:00 34.8 14 Oeste 34 Sudoeste 0 -- -- 17
2018-08-26 14:00:00 34.4 18 Sudoeste 37 Sudoeste 0 -- -- 19
2018-08-26 13:00:00 33.5 6 Norte 23 Sudeste 0 -- -- 19
2018-08-26 12:00:00 32.6 3 Sur 15 Este 0 -- -- 19
2018-08-26 11:00:00 31.4 5 Norte 12 Nordeste 0 -- -- 19
2018-08-26 10:00:00 28.4 6 Sudeste 13 Este 0 -- -- 25
2018-08-26 09:00:00 24.5 11 Sudeste 13 Sudeste 0 -- -- 27
2018-08-26 08:00:00 22.7 5 Sudeste 8 Sudeste 0 -- -- 32
2018-08-26 07:00:00 22.7 5 Sudeste 6 Sudeste 0 -- -- 36
2018-08-26 06:00:00 23 3 Sudeste 10 Sudeste 0 -- -- 35
2018-08-26 05:00:00 22.2 5 Sudeste 8 Sudeste 0 -- -- 36
2018-08-26 04:00:00 23.3 3 Sur 6 Sudoeste 0 -- -- 31
2018-08-26 03:00:00 23.2 0 Calma 5 Oeste 0 -- -- 31
2018-08-26 02:00:00 23.3 2 Sudoeste 10 Oeste 0 -- -- 31
2018-08-26 01:00:00 23.8 9 Oeste 12 Oeste 0 -- -- 28
2018-08-26 00:00:00 25.5 7 Oeste 17 Noroeste 0 -- -- 25
2018-08-25 23:00:00 26.3 16 Noroeste 21 Noroeste 0 -- -- 24
2018-08-25 22:00:00 27.6 15 Norte 20 Noroeste 0 -- -- 23
2018-08-25 21:00:00 30.2 16 Norte 29 Noroeste 0 -- -- 21
2018-08-25 20:00:00 33 19 Noroeste 35 Noroeste 0 -- -- 19
2018-08-25 19:00:00 34.5 11 Oeste 33 Oeste 0 -- -- 19
2018-08-25 18:00:00 34.6 9 Noroeste 32 Oeste 0 -- -- 20
2018-08-25 17:00:00 35.2 8 Oeste 33 Noroeste 0 -- -- 19
2018-08-25 16:00:00 35.5 12 Oeste 25 Oeste 0 -- -- 19
2018-08-25 15:00:00 34.8 13 Norte 28 Nordeste 0 -- -- 19
2018-08-25 14:00:00 34.5 5 Nordeste 18 Noroeste 0 -- -- 19
2018-08-25 13:00:00 33 8 Noroeste 13 Norte 0 -- -- 18
2018-08-25 12:00:00 30.9 4 Norte 10 Norte 0 -- -- 21
2018-08-25 11:00:00 27.1 4 Oeste 8 Noroeste 0 -- -- 27
2018-08-25 10:00:00 24.5 5 Noroeste 9 Noroeste 0 -- -- 30
2018-08-25 09:00:00 22.7 4 Noroeste 8 Noroeste 0 -- -- 33
2018-08-25 08:00:00 22.4 3 Noroeste 6 Norte 0 -- -- 34
2018-08-25 07:00:00 22.5 2 Oeste 5 Oeste 0 -- -- 34
2018-08-25 06:00:00 22.8 5 Oeste 7 Sur 0 -- -- 37
2018-08-25 05:00:00 22.9 4 Sudoeste 7 Sudoeste 0 -- -- 38
2018-08-25 04:00:00 23.3 5 Sudoeste 8 Sudoeste 0 -- -- 37
2018-08-25 03:00:00 23.7 8 Sudoeste 10 Sudoeste 0 -- -- 38
2018-08-25 02:00:00 24.5 7 Sudoeste 9 Sudoeste 0 -- -- 36
2018-08-25 01:00:00 25.6 8 Sudoeste 16 Oeste 0 -- -- 34
2018-08-25 00:00:00 26.7 6 Sudoeste 8 Sudoeste 0 -- -- 32
2018-08-24 23:00:00 28.3 6 Oeste 12 Noroeste 0 -- -- 29
2018-08-24 22:00:00 29 10 Noroeste 23 Noroeste 0 -- -- 29
2018-08-24 21:00:00 31.5 16 Noroeste 22 Norte 0 -- -- 26
2018-08-24 20:00:00 33 14 Norte 27 Oeste 0 -- -- 27
2018-08-24 19:00:00 34.6 15 Noroeste 53 Oeste 0 -- -- 25
2018-08-24 18:00:00 34.6 6 Norte 26 Noroeste 0 -- -- 26
2018-08-24 17:00:00 34.1 17 Noroeste 35 Noroeste 0 -- -- 25
2018-08-24 16:00:00 34.8 20 Noroeste 32 Noroeste 0 -- -- 25
2018-08-24 15:00:00 34.4 9 Oeste 22 Noroeste 0 -- -- 25
2018-08-24 14:00:00 33.6 10 Noroeste 19 Oeste 0 -- -- 27
2018-08-24 13:00:00 31.9 4 Noroeste 12 Oeste 0 -- -- 30
2018-08-24 12:00:00 29.2 4 Sudoeste 8 Sur 0 -- -- 38
2018-08-24 11:00:00 26.4 3 Noroeste 7 Noroeste 0 -- -- 43
2018-08-24 10:00:00 23.9 4 Sudoeste 7 Oeste 0 -- -- 54
2018-08-24 09:00:00 21.9 3 Noroeste 10 Norte 0 -- -- 54
2018-08-24 08:00:00 22.4 5 Sudoeste 8 Sudoeste 0 -- -- 48
2018-08-24 07:00:00 21.9 5 Sur 8 Sudoeste 0 -- -- 50
2018-08-24 06:00:00 22.5 6 Sudoeste 9 Sudoeste 0 -- -- 48
2018-08-24 05:00:00 22.5 8 Sudoeste 11 Sudoeste 0 -- -- 49
2018-08-24 04:00:00 22.7 6 Sudoeste 11 Sudoeste 0 -- -- 50
2018-08-24 03:00:00 23.2 6 Sudoeste 11 Sudoeste 0 -- -- 48
2018-08-24 02:00:00 23.3 5 Sudoeste 13 Oeste 0 -- -- 50
2018-08-24 01:00:00 23.9 7 Oeste 11 Oeste 0 -- -- 52
2018-08-24 00:00:00 24.8 10 Oeste 14 Oeste 0 -- -- 50
2018-08-23 23:00:00 26.2 6 Sur 12 Sudoeste 0 -- -- 43
2018-08-23 22:00:00 26 6 Sur 15 Sudeste 0 -- -- 45
2018-08-23 21:00:00 24.2 17 Sudeste 54 Este 0.2 -- -- 54
2018-08-23 20:00:00 26.1 17 Este 75 Noroeste 3.6 -- -- 56
2018-08-23 19:00:00 31.8 12 Sudeste 32 Sudeste 0 -- -- 36
2018-08-23 18:00:00 30.5 24 Este 41 Este 0 -- -- 37
2018-08-23 17:00:00 34 7 Nordeste 35 Noroeste 0 -- -- 25
2018-08-23 16:00:00 33.1 11 Noroeste 27 Nordeste 0 -- -- 24
2018-08-23 15:00:00 33.8 11 Noroeste 21 Oeste 0 -- -- 24
2018-08-23 14:00:00 32.8 10 Sudoeste 22 Oeste 0 -- -- 26
2018-08-23 13:00:00 32.2 10 Noroeste 17 Oeste 0 -- -- 27
2018-08-23 12:00:00 30.9 3 Noroeste 12 Oeste 0 -- -- 29
2018-08-23 11:00:00 28.4 3 Sur 7 Sur 0 -- -- 35
2018-08-23 10:00:00 24.7 0 Calma 7 Sudoeste 0 -- -- 44
2018-08-23 09:00:00 21.2 5 Sudoeste 8 Sudoeste 0 -- -- 51
2018-08-23 08:00:00 20.6 6 Sur 9 Este 0 -- -- 51
2018-08-23 07:00:00 21.4 6 Este 14 Este 0 -- -- 49
2018-08-23 06:00:00 22.2 7 Este 13 Este 0 -- -- 48
2018-08-23 05:00:00 22.8 8 Sudeste 15 Este 0 -- -- 46
2018-08-23 04:00:00 22.6 6 Sur 8 Sur 0 -- -- 46
2018-08-23 03:00:00 22.6 6 Sur 11 Sur 0 -- -- 46
2018-08-23 02:00:00 22.2 6 Sur 9 Sur 0 -- -- 48
2018-08-23 01:00:00 23.4 6 Oeste 15 Este 0 -- -- 44
2018-08-23 00:00:00 24.3 14 Este 24 Este 0 -- -- 43